Como, Colorado
Current Conditions -  °F | °C
As of 5:57 AM on Tuesday 21 Oct 2014 (Local Time) from KCCU Reporting Station
Clear Clear  
Wind Chill: 30°   Ceiling: Unl
Heat Index: 39°   Visibility: 10mi
Dew Point: 28°   Wind: 17mph
Humidity: 65%   Direction: 180°S
Pressure: 30.39"   Gusts: NA
Location:  39.32°N, 105.89°W
Report Text: KCCU 211157Z AUTO 18015KT 10SM CLR 04/M02 A3039 RMK AO2
Loading
Personal Weather Stations






























Interactive Weather Map
Tropical Storm Tracking
New forecast layout! Learn more

10-Day Weather Forecast

Advertisements
Track Severe Weather on mobile